createdAt,value
2023-01-10T00:55:32.979Z,643.00
2023-01-10T00:56:33.807Z,640.00
2023-01-10T00:57:33.751Z,640.00
2023-01-10T00:58:33.701Z,640.00
2023-01-10T00:59:33.654Z,641.00
2023-01-10T01:00:33.653Z,644.00
2023-01-10T01:01:33.709Z,644.00
2023-01-10T01:02:33.527Z,645.00
2023-01-10T01:03:33.480Z,645.00
2023-01-10T01:04:33.413Z,640.00
2023-01-10T01:05:33.358Z,637.00
2023-01-10T01:06:33.326Z,634.00
2023-01-10T01:07:33.263Z,632.00
2023-01-10T01:08:33.216Z,633.00
2023-01-10T01:09:33.169Z,633.00
2023-01-10T01:10:33.118Z,635.00
2023-01-10T01:11:33.095Z,636.00
2023-01-10T01:12:33.025Z,638.00
2023-01-10T01:13:33.043Z,640.00
2023-01-10T01:14:32.915Z,639.00
2023-01-10T01:15:32.922Z,636.00
2023-01-10T01:16:32.811Z,636.00
2023-01-10T01:17:32.769Z,639.00
2023-01-10T01:18:32.743Z,640.00
2023-01-10T01:19:32.685Z,639.00
2023-01-10T01:20:32.612Z,638.00
2023-01-10T01:21:32.569Z,637.00
2023-01-10T01:22:32.521Z,636.00
2023-01-10T01:23:32.477Z,634.00
2023-01-10T01:24:32.455Z,631.00
2023-01-10T01:25:32.364Z,630.00
2023-01-10T01:26:32.318Z,631.00
2023-01-10T01:27:32.296Z,631.00
2023-01-10T01:28:32.216Z,632.00
2023-01-10T01:29:42.279Z,627.00
2023-01-10T01:30:32.126Z,626.00
2023-01-10T01:31:32.094Z,626.00
2023-01-10T01:32:32.018Z,625.00
2023-01-10T01:33:32.616Z,626.00
2023-01-10T01:34:31.927Z,628.00
2023-01-10T01:35:31.850Z,629.00
2023-01-10T01:36:31.857Z,630.00
2023-01-10T01:37:31.750Z,630.00
2023-01-10T01:38:31.730Z,628.00
2023-01-10T01:39:31.657Z,625.00
2023-01-10T01:40:31.620Z,628.00
2023-01-10T01:41:31.552Z,630.00
2023-01-10T01:42:31.505Z,628.00
2023-01-10T01:43:31.479Z,625.00
2023-01-10T01:44:31.448Z,619.00
2023-01-10T01:45:31.424Z,617.00
2023-01-10T01:46:31.438Z,614.00
2023-01-10T01:47:31.265Z,612.00
2023-01-10T01:48:31.233Z,615.00
2023-01-10T01:49:31.177Z,615.00
2023-01-10T01:50:31.181Z,616.00
2023-01-10T01:51:31.059Z,618.00
2023-01-10T01:52:31.012Z,619.00
2023-01-10T01:53:30.989Z,621.00
2023-01-10T01:54:30.922Z,620.00
2023-01-10T01:55:30.863Z,620.00
2023-01-10T01:56:30.805Z,623.00
2023-01-10T01:57:30.745Z,621.00
2023-01-10T01:58:30.694Z,620.00
2023-01-10T01:59:30.680Z,620.00
2023-01-10T02:00:30.617Z,620.00
2023-01-10T02:01:30.668Z,619.00
2023-01-10T02:02:30.500Z,619.00
2023-01-10T02:03:30.527Z,622.00
2023-01-10T02:04:30.395Z,621.00
2023-01-10T02:05:30.330Z,622.00
2023-01-10T02:06:30.293Z,622.00
2023-01-10T02:07:30.229Z,623.00
2023-01-10T02:08:30.182Z,620.00
2023-01-10T02:09:30.130Z,621.00
2023-01-10T02:10:30.078Z,619.00
2023-01-10T02:11:30.066Z,618.00
2023-01-10T02:12:30.003Z,617.00
2023-01-10T02:13:29.933Z,618.00
2023-01-10T02:14:29.885Z,615.00
2023-01-10T02:15:29.859Z,613.00
2023-01-10T02:16:29.821Z,614.00
2023-01-10T02:17:29.749Z,611.00
2023-01-10T02:18:29.680Z,610.00
2023-01-10T02:19:29.631Z,608.00
2023-01-10T02:20:29.581Z,607.00
2023-01-10T02:21:29.530Z,609.00
2023-01-10T02:22:29.485Z,611.00
2023-01-10T02:23:29.432Z,612.00
2023-01-10T02:24:29.386Z,613.00
2023-01-10T02:25:29.337Z,612.00
2023-01-10T02:26:29.283Z,612.00
2023-01-10T02:27:29.240Z,613.00
2023-01-10T02:28:29.192Z,615.00
2023-01-10T02:29:29.129Z,614.00
2023-01-10T02:30:29.088Z,616.00
2023-01-10T02:31:29.071Z,616.00
2023-01-10T02:32:42.102Z,612.00
2023-01-10T02:33:28.949Z,609.00
2023-01-10T02:34:28.901Z,610.00
2023-01-10T02:35:28.890Z,609.00
2023-01-10T02:36:28.806Z,606.00
2023-01-10T02:37:28.749Z,606.00
2023-01-10T02:38:28.699Z,607.00
2023-01-10T02:39:28.688Z,610.00
2023-01-10T02:40:28.607Z,611.00
2023-01-10T02:41:28.563Z,613.00
2023-01-10T02:42:28.515Z,613.00
2023-01-10T02:43:28.475Z,613.00
2023-01-10T02:44:28.441Z,609.00
2023-01-10T02:45:28.392Z,609.00
2023-01-10T02:46:28.455Z,608.00
2023-01-10T02:47:28.422Z,605.00
2023-01-10T02:48:28.236Z,604.00
2023-01-10T02:49:28.191Z,604.00
2023-01-10T02:50:28.217Z,605.00
2023-01-10T02:51:28.123Z,603.00
2023-01-10T02:52:28.053Z,600.00
2023-01-10T02:53:28.014Z,601.00
2023-01-10T02:54:28.012Z,602.00
2023-01-10T02:55:27.928Z,600.00
2023-01-10T02:56:27.894Z,599.00
2023-01-10T02:57:27.837Z,597.00
2023-01-10T02:58:27.804Z,596.00
2023-01-10T02:59:27.769Z,598.00
2023-01-10T03:00:27.708Z,601.00
2023-01-10T03:01:27.859Z,602.00
2023-01-10T03:02:27.632Z,602.00
2023-01-10T03:03:27.622Z,602.00
2023-01-10T03:04:27.545Z,601.00
2023-01-10T03:05:27.488Z,599.00
2023-01-10T03:06:27.522Z,596.00
2023-01-10T03:07:27.398Z,595.00
2023-01-10T03:08:27.359Z,594.00
2023-01-10T03:09:27.313Z,595.00
2023-01-10T03:10:27.265Z,596.00
2023-01-10T03:11:27.265Z,596.00
2023-01-10T03:12:27.192Z,598.00
2023-01-10T03:13:27.133Z,597.00
2023-01-10T03:14:27.102Z,598.00
2023-01-10T03:15:27.048Z,599.00
2023-01-10T03:16:27.096Z,596.00
2023-01-10T03:17:26.998Z,599.00
2023-01-10T03:18:26.925Z,599.00
2023-01-10T03:19:26.902Z,598.00
2023-01-10T03:20:26.871Z,597.00
2023-01-10T03:21:26.789Z,599.00
2023-01-10T03:22:26.815Z,600.00
2023-01-10T03:23:26.716Z,601.00
2023-01-10T03:24:26.659Z,602.00
2023-01-10T03:25:26.618Z,600.00
2023-01-10T03:26:26.567Z,597.00
2023-01-10T03:27:26.527Z,600.00
2023-01-10T03:28:26.478Z,603.00
2023-01-10T03:29:26.472Z,600.00
2023-01-10T03:30:26.388Z,599.00
2023-01-10T03:31:26.464Z,601.00
2023-01-10T03:32:26.324Z,603.00
2023-01-10T03:33:26.266Z,604.00
2023-01-10T03:34:26.252Z,604.00
2023-01-10T03:35:26.202Z,605.00
2023-01-10T03:36:26.173Z,604.00
2023-01-10T03:37:26.088Z,605.00
2023-01-10T03:38:26.040Z,602.00
2023-01-10T03:39:26.005Z,604.00
2023-01-10T03:40:25.957Z,603.00
2023-01-10T03:41:25.970Z,603.00
2023-01-10T03:42:25.875Z,601.00
2023-01-10T03:43:26.701Z,603.00
2023-01-10T03:44:25.811Z,600.00
2023-01-10T03:45:25.747Z,601.00
2023-01-10T03:46:25.733Z,599.00
2023-01-10T03:47:25.652Z,598.00
2023-01-10T03:48:25.632Z,597.00
2023-01-10T03:49:25.561Z,598.00
2023-01-10T03:50:25.510Z,599.00
2023-01-10T03:51:25.495Z,599.00
2023-01-10T03:52:25.419Z,598.00
2023-01-10T03:53:25.408Z,599.00
2023-01-10T03:54:25.334Z,600.00
2023-01-10T03:55:25.283Z,601.00
2023-01-10T03:56:25.244Z,600.00
2023-01-10T03:57:25.194Z,601.00
2023-01-10T03:58:25.144Z,597.00
2023-01-10T03:59:25.100Z,596.00
2023-01-10T04:00:25.057Z,596.00
2023-01-10T04:01:25.124Z,594.00
2023-01-10T04:02:25.004Z,595.00
2023-01-10T04:03:24.943Z,595.00
2023-01-10T04:04:24.968Z,594.00
2023-01-10T04:05:24.819Z,594.00
2023-01-10T04:06:24.776Z,595.00
2023-01-10T04:07:24.807Z,594.00
2023-01-10T04:08:24.687Z,594.00
2023-01-10T04:09:24.643Z,593.00
2023-01-10T04:10:25.313Z,592.00
2023-01-10T04:11:24.554Z,590.00
2023-01-10T04:12:24.501Z,590.00
2023-01-10T04:13:24.448Z,589.00
2023-01-10T04:14:24.408Z,590.00
2023-01-10T04:15:24.353Z,590.00
2023-01-10T04:16:24.357Z,590.00
2023-01-10T04:17:24.259Z,588.00
2023-01-10T04:18:24.220Z,591.00
2023-01-10T04:19:24.161Z,591.00
2023-01-10T04:20:24.106Z,590.00
2023-01-10T04:21:24.099Z,591.00
2023-01-10T04:22:24.008Z,589.00
2023-01-10T04:23:23.980Z,584.00
2023-01-10T04:24:23.891Z,584.00
2023-01-10T04:25:23.835Z,583.00
2023-01-10T04:26:23.781Z,583.00
2023-01-10T04:27:23.741Z,583.00
2023-01-10T04:28:24.759Z,580.00
2023-01-10T04:29:23.621Z,580.00
2023-01-10T04:30:23.576Z,578.00
2023-01-10T04:31:23.576Z,579.00
2023-01-10T04:32:23.513Z,579.00
2023-01-10T04:33:23.433Z,582.00
2023-01-10T04:34:23.381Z,582.00
2023-01-10T04:35:23.336Z,581.00
2023-01-10T04:36:23.293Z,582.00
2023-01-10T04:37:23.269Z,577.00
2023-01-10T04:38:23.193Z,577.00
2023-01-10T04:39:23.182Z,574.00
2023-01-10T04:40:23.109Z,574.00
2023-01-10T04:41:23.048Z,574.00
2023-01-10T04:42:23.034Z,577.00
2023-01-10T04:43:22.952Z,578.00
2023-01-10T04:44:22.914Z,581.00
2023-01-10T04:45:22.864Z,580.00
2023-01-10T04:46:22.813Z,580.00
2023-01-10T04:47:22.765Z,580.00
2023-01-10T04:48:22.794Z,580.00
2023-01-10T04:49:22.658Z,578.00
2023-01-10T04:50:22.607Z,576.00
2023-01-10T04:51:22.557Z,574.00
2023-01-10T04:52:22.504Z,570.00
2023-01-10T04:53:22.486Z,569.00
2023-01-10T04:54:22.444Z,568.00
2023-01-10T04:55:22.410Z,570.00
2023-01-10T04:56:22.309Z,568.00
2023-01-10T04:57:22.259Z,567.00
2023-01-10T04:58:22.227Z,569.00
2023-01-10T04:59:22.164Z,567.00
2023-01-10T05:00:22.164Z,568.00
2023-01-10T05:01:22.124Z,567.00
2023-01-10T05:02:22.161Z,568.00
2023-01-10T05:03:21.960Z,570.00
2023-01-10T05:04:21.908Z,570.00
2023-01-10T05:05:21.862Z,571.00
2023-01-10T05:06:21.822Z,574.00
2023-01-10T05:07:21.766Z,574.00
2023-01-10T05:08:21.737Z,576.00
2023-01-10T05:09:21.708Z,575.00
2023-01-10T05:10:21.633Z,572.00
2023-01-10T05:11:21.610Z,572.00
2023-01-10T05:12:21.569Z,571.00
2023-01-10T05:13:21.491Z,572.00
2023-01-10T05:14:21.444Z,572.00
2023-01-10T05:15:21.391Z,572.00
2023-01-10T05:16:21.417Z,571.00
2023-01-10T05:17:21.297Z,574.00
2023-01-10T05:18:21.239Z,573.00
2023-01-10T05:19:21.215Z,570.00
2023-01-10T05:20:21.142Z,570.00
2023-01-10T05:21:21.102Z,571.00
2023-01-10T05:22:21.048Z,572.00
2023-01-10T05:23:20.996Z,570.00
2023-01-10T05:24:20.978Z,572.00
2023-01-10T05:25:20.902Z,572.00
2023-01-10T05:26:20.855Z,571.00
2023-01-10T05:27:20.837Z,570.00
2023-01-10T05:28:20.770Z,572.00
2023-01-10T05:29:20.758Z,571.00
2023-01-10T05:30:20.696Z,573.00
2023-01-10T05:31:20.722Z,572.00
2023-01-10T05:32:20.599Z,571.00
2023-01-10T05:33:20.552Z,569.00
2023-01-10T05:34:20.503Z,569.00
2023-01-10T05:35:20.462Z,569.00
2023-01-10T05:36:20.440Z,572.00
2023-01-10T05:37:20.367Z,570.00
2023-01-10T05:38:20.323Z,569.00
2023-01-10T05:39:20.374Z,566.00
2023-01-10T05:40:20.238Z,568.00
2023-01-10T05:41:20.200Z,568.00
2023-01-10T05:42:20.152Z,570.00
2023-01-10T05:43:20.137Z,572.00
2023-01-10T05:44:20.074Z,573.00
2023-01-10T05:45:20.043Z,572.00
2023-01-10T05:46:20.030Z,571.00
2023-01-10T05:47:19.937Z,567.00
2023-01-10T05:48:19.897Z,566.00
2023-01-10T05:49:19.878Z,565.00
2023-01-10T05:50:19.800Z,566.00
2023-01-10T05:51:19.781Z,565.00
2023-01-10T05:52:19.726Z,565.00
2023-01-10T05:53:19.667Z,563.00
2023-01-10T05:54:19.597Z,565.00
2023-01-10T05:55:19.540Z,566.00
2023-01-10T05:56:19.542Z,567.00
2023-01-10T05:57:19.452Z,567.00
2023-01-10T05:58:19.396Z,569.00
2023-01-10T05:59:28.162Z,567.00
2023-01-10T06:00:19.312Z,567.00
2023-01-10T06:01:19.327Z,565.00
2023-01-10T06:02:19.346Z,562.00
2023-01-10T06:03:19.252Z,563.00
2023-01-10T06:04:19.089Z,565.00
2023-01-10T06:05:19.039Z,567.00
2023-01-10T06:06:19.017Z,567.00
2023-01-10T06:07:18.938Z,565.00
2023-01-10T06:08:18.886Z,561.00
2023-01-10T06:09:18.824Z,560.00
2023-01-10T06:10:18.778Z,559.00
2023-01-10T06:11:18.757Z,559.00
2023-01-10T06:12:18.674Z,562.00
2023-01-10T06:13:18.619Z,565.00
2023-01-10T06:14:18.574Z,565.00
2023-01-10T06:15:18.624Z,569.00
2023-01-10T06:16:18.538Z,570.00
2023-01-10T06:17:18.419Z,571.00
2023-01-10T06:18:18.358Z,570.00
2023-01-10T06:19:18.316Z,568.00
2023-01-10T06:20:18.795Z,566.00
2023-01-10T06:21:18.209Z,564.00
2023-01-10T06:22:18.272Z,563.00
2023-01-10T06:23:18.105Z,562.00
2023-01-10T06:24:18.053Z,564.00
2023-01-10T06:25:18.278Z,569.00
2023-01-10T06:26:17.946Z,578.00
2023-01-10T06:27:17.896Z,578.00
2023-01-10T06:28:17.841Z,573.00
2023-01-10T06:29:17.783Z,573.00
2023-01-10T06:30:17.779Z,570.00
2023-01-10T06:31:17.776Z,567.00
2023-01-10T06:32:17.697Z,562.00
2023-01-10T06:33:17.575Z,561.00
2023-01-10T06:34:17.515Z,563.00
2023-01-10T06:35:17.458Z,563.00
2023-01-10T06:36:17.414Z,563.00
2023-01-10T06:37:20.172Z,562.00
2023-01-10T06:38:17.306Z,564.00
2023-01-10T06:39:17.239Z,566.00
2023-01-10T06:40:17.191Z,571.00
2023-01-10T06:41:17.137Z,574.00
2023-01-10T06:42:17.306Z,575.00
2023-01-10T06:43:17.033Z,578.00
2023-01-10T06:44:16.991Z,579.00
2023-01-10T06:45:16.939Z,581.00
2023-01-10T06:46:16.954Z,586.00
2023-01-10T06:47:17.347Z,592.00
2023-01-10T06:48:16.795Z,596.00
2023-01-10T06:49:16.748Z,599.00
2023-01-10T06:50:16.710Z,602.00
2023-01-10T06:51:19.173Z,605.00
2023-01-10T06:52:16.883Z,611.00
2023-01-10T06:53:16.571Z,627.00
2023-01-10T06:54:16.993Z,673.00
2023-01-10T06:55:16.475Z,678.00
2023-01-10T06:56:16.440Z,683.00
2023-01-10T06:57:16.777Z,701.00
2023-01-10T06:58:17.051Z,709.00
2023-01-10T06:59:16.315Z,796.00
2023-01-10T07:00:16.265Z,805.00
2023-01-10T07:01:16.411Z,829.00
2023-01-10T07:02:16.212Z,856.00
2023-01-10T07:03:16.312Z,870.00
2023-01-10T07:04:16.222Z,884.00
2023-01-10T07:05:16.060Z,901.00
2023-01-10T07:06:16.023Z,919.00
2023-01-10T07:07:15.984Z,940.00
2023-01-10T07:08:16.269Z,956.00
2023-01-10T07:09:16.855Z,973.00
2023-01-10T07:10:16.666Z,982.00
2023-01-10T07:11:15.755Z,996.00
2023-01-10T07:12:15.695Z,1017.00
2023-01-10T07:13:15.645Z,1034.00
2023-01-10T07:14:15.610Z,1067.00
2023-01-10T07:15:15.551Z,1089.00
2023-01-10T07:16:15.906Z,1102.00
2023-01-10T07:17:15.440Z,1117.00
2023-01-10T07:18:15.390Z,1134.00
2023-01-10T07:19:15.356Z,1150.00
2023-01-10T07:20:15.287Z,1183.00
2023-01-10T07:21:15.286Z,1204.00
2023-01-10T07:22:15.283Z,1231.00
2023-01-10T07:23:15.125Z,1244.00
2023-01-10T07:24:15.318Z,1259.00
2023-01-10T07:25:15.026Z,1271.00
2023-01-10T07:26:14.968Z,1287.00
2023-01-10T07:27:15.800Z,1309.00
2023-01-10T07:28:14.866Z,1326.00
2023-01-10T07:29:14.803Z,1354.00
2023-01-10T07:30:14.748Z,1371.00
2023-01-10T07:31:14.768Z,1388.00
2023-01-10T07:32:14.810Z,1402.00
2023-01-10T07:33:14.595Z,1414.00
2023-01-10T07:34:14.542Z,1440.00
2023-01-10T07:35:14.533Z,1453.00
2023-01-10T07:36:14.458Z,1466.00
2023-01-10T07:37:14.378Z,1484.00
2023-01-10T07:38:14.870Z,1503.00
2023-01-10T07:39:14.298Z,1522.00
2023-01-10T07:40:14.246Z,1532.00
2023-01-10T07:41:14.162Z,1544.00
2023-01-10T07:42:14.101Z,1566.00
2023-01-10T07:43:14.322Z,1582.00
2023-01-10T07:44:14.372Z,1600.00
2023-01-10T07:45:13.930Z,1612.00
2023-01-10T07:46:13.935Z,1610.00
2023-01-10T07:47:14.320Z,969.00
2023-01-10T07:48:13.843Z,874.00
2023-01-10T07:49:13.771Z,821.00
2023-01-10T07:50:14.019Z,759.00
2023-01-10T07:51:14.728Z,732.00
2023-01-10T07:52:13.897Z,693.00
2023-01-10T07:53:13.613Z,641.00
2023-01-10T07:54:14.864Z,619.00
2023-01-10T07:55:13.544Z,603.00
2023-01-10T07:56:13.507Z,592.00
2023-01-10T07:57:13.507Z,579.00
2023-01-10T07:58:13.791Z,571.00
2023-01-10T07:59:13.430Z,556.00
2023-01-10T08:00:13.402Z,546.00
2023-01-10T08:01:13.432Z,538.00
2023-01-10T08:02:13.492Z,520.00
2023-01-10T08:03:13.580Z,511.00
2023-01-10T08:04:13.369Z,508.00
2023-01-10T08:05:13.309Z,504.00
2023-01-10T08:06:15.929Z,504.00
2023-01-10T08:07:13.270Z,502.00
2023-01-10T08:08:13.308Z,496.00
2023-01-10T08:09:13.293Z,495.00
2023-01-10T08:10:13.191Z,488.00
2023-01-10T08:11:13.299Z,484.00
2023-01-10T08:12:13.152Z,481.00
2023-01-10T08:13:18.841Z,482.00
2023-01-10T08:14:13.457Z,485.00
2023-01-10T08:15:13.101Z,487.00
2023-01-10T08:16:13.200Z,490.00
2023-01-10T08:17:13.052Z,488.00
2023-01-10T08:18:13.056Z,488.00
2023-01-10T08:19:12.995Z,488.00
2023-01-10T08:20:12.973Z,490.00
2023-01-10T08:21:13.345Z,490.00
2023-01-10T08:22:12.915Z,493.00
2023-01-10T08:23:12.901Z,498.00
2023-01-10T08:24:12.847Z,500.00
2023-01-10T08:25:12.834Z,503.00
2023-01-10T08:26:12.832Z,504.00
2023-01-10T08:27:13.744Z,505.00
2023-01-10T08:28:12.703Z,513.00
2023-01-10T08:29:12.666Z,522.00
2023-01-10T08:30:12.632Z,530.00
2023-01-10T08:31:12.963Z,533.00
2023-01-10T08:32:12.583Z,536.00
2023-01-10T08:33:12.538Z,540.00
2023-01-10T08:34:12.493Z,542.00
2023-01-10T08:35:12.463Z,545.00
2023-01-10T08:36:12.425Z,549.00
2023-01-10T08:37:12.824Z,552.00
2023-01-10T08:38:12.370Z,555.00
2023-01-10T08:39:12.876Z,565.00
2023-01-10T08:40:12.263Z,571.00
2023-01-10T08:41:12.261Z,582.00
2023-01-10T08:42:12.180Z,615.00
2023-01-10T08:43:12.133Z,626.00
2023-01-10T08:44:12.099Z,638.00
2023-01-10T08:45:12.312Z,653.00
2023-01-10T08:46:12.418Z,665.00
2023-01-10T08:47:12.008Z,647.00
2023-01-10T08:48:11.936Z,642.00
2023-01-10T08:49:11.898Z,651.00
2023-01-10T08:50:11.843Z,748.00
2023-01-10T08:51:11.884Z,749.00
2023-01-10T08:52:11.761Z,759.00
2023-01-10T08:53:11.714Z,782.00
2023-01-10T08:54:11.697Z,831.00
2023-01-10T08:55:11.665Z,865.00
2023-01-10T08:56:11.840Z,887.00
2023-01-10T08:57:11.551Z,900.00
2023-01-10T08:58:11.506Z,920.00
2023-01-10T08:59:11.487Z,942.00
2023-01-10T09:00:11.479Z,959.00
2023-01-10T09:01:11.462Z,981.00
2023-01-10T09:02:11.891Z,1014.00
2023-01-10T09:03:11.393Z,1029.00
2023-01-10T09:04:11.348Z,1045.00
2023-01-10T09:05:22.264Z,1060.00
2023-01-10T09:06:12.496Z,1077.00
2023-01-10T09:07:11.282Z,1095.00
2023-01-10T09:08:12.072Z,1114.00
2023-01-10T09:09:11.861Z,1140.00
2023-01-10T09:10:11.999Z,1162.00
2023-01-10T09:11:10.961Z,1186.00
2023-01-10T09:12:10.865Z,1210.00
2023-01-10T09:13:10.813Z,1224.00
2023-01-10T09:14:10.814Z,1251.00
2023-01-10T09:15:10.861Z,1265.00
2023-01-10T09:16:10.754Z,1281.00
2023-01-10T09:17:10.889Z,1318.00
2023-01-10T09:18:10.625Z,1339.00
2023-01-10T09:19:10.912Z,1349.00
2023-01-10T09:20:10.554Z,1360.00
2023-01-10T09:21:10.455Z,1388.00
2023-01-10T09:22:10.417Z,1401.00
2023-01-10T09:23:10.580Z,1423.00
2023-01-10T09:24:10.417Z,1438.00
2023-01-10T09:25:10.342Z,1457.00
2023-01-10T09:26:10.243Z,1484.00
2023-01-10T09:27:10.244Z,1504.00
2023-01-10T09:28:10.152Z,1515.00
2023-01-10T09:29:10.099Z,1538.00
2023-01-10T09:30:10.044Z,1555.00
2023-01-10T09:31:10.072Z,1566.00
2023-01-10T09:32:09.944Z,1583.00
2023-01-10T09:33:09.898Z,1602.00
2023-01-10T09:34:09.828Z,1619.00
2023-01-10T09:35:09.854Z,1641.00
2023-01-10T09:36:10.361Z,1667.00
2023-01-10T09:37:09.702Z,1696.00
2023-01-10T09:38:09.869Z,1711.00
2023-01-10T09:39:10.857Z,1720.00
2023-01-10T09:40:09.535Z,1738.00
2023-01-10T09:41:09.497Z,1756.00
2023-01-10T09:42:09.433Z,1777.00
2023-01-10T09:43:09.999Z,1799.00
2023-01-10T09:44:09.421Z,1822.00
2023-01-10T09:45:09.256Z,1846.00
2023-01-10T09:46:09.212Z,1865.00
2023-01-10T09:47:21.486Z,1878.00
2023-01-10T09:48:09.102Z,1897.00
2023-01-10T09:49:09.031Z,1911.00
2023-01-10T09:50:09.380Z,1944.00
2023-01-10T09:51:08.943Z,1960.00
2023-01-10T09:52:08.890Z,1972.00
2023-01-10T09:53:08.828Z,1984.00
2023-01-10T09:54:12.802Z,1998.00
2023-01-10T09:55:08.866Z,2015.00
2023-01-10T09:56:08.709Z,2024.00
2023-01-10T09:57:08.780Z,2046.00
2023-01-10T09:58:08.617Z,2061.00
2023-01-10T09:59:08.658Z,2078.00
2023-01-10T10:00:09.255Z,2092.00
2023-01-10T10:01:08.541Z,2120.00
2023-01-10T10:02:08.402Z,2161.00
2023-01-10T10:03:08.431Z,2171.00
2023-01-10T10:04:08.377Z,2187.00
2023-01-10T10:05:08.386Z,2206.00
2023-01-10T10:06:12.368Z,2227.00
2023-01-10T10:07:08.079Z,2235.00
2023-01-10T10:08:08.065Z,2240.00
2023-01-10T10:09:08.035Z,2252.00
2023-01-10T10:10:08.578Z,2277.00
2023-01-10T10:11:07.937Z,2300.00
2023-01-10T10:12:07.875Z,2317.00
2023-01-10T10:13:08.085Z,2330.00
2023-01-10T10:14:07.693Z,2352.00
2023-01-10T10:15:07.670Z,2369.00
2023-01-10T10:16:07.614Z,2389.00
2023-01-10T10:17:08.475Z,2406.00
2023-01-10T10:18:07.431Z,2435.00
2023-01-10T10:19:07.435Z,2448.00
2023-01-10T10:20:07.432Z,2458.00
2023-01-10T10:21:07.291Z,2471.00
2023-01-10T10:22:07.185Z,2496.00
2023-01-10T10:23:07.133Z,2523.00
2023-01-10T10:24:07.080Z,2542.00
2023-01-10T10:25:07.494Z,2554.00
2023-01-10T10:26:06.974Z,2566.00
2023-01-10T10:27:06.967Z,2593.00
2023-01-10T10:28:08.343Z,2613.00
2023-01-10T10:29:07.093Z,2612.00
2023-01-10T10:30:08.665Z,2620.00
2023-01-10T10:31:07.431Z,2617.00
2023-01-10T10:32:07.219Z,2613.00
2023-01-10T10:33:07.503Z,2613.00
2023-01-10T10:34:06.981Z,2613.00
2023-01-10T10:35:07.272Z,2602.00
2023-01-10T10:36:06.846Z,2459.00
2023-01-10T10:37:06.935Z,2458.00
2023-01-10T10:38:07.095Z,2255.00
2023-01-10T10:39:11.719Z,2260.00
2023-01-10T10:40:06.684Z,2255.00
2023-01-10T10:41:07.159Z,2195.00
2023-01-10T10:42:06.732Z,2115.00
2023-01-10T10:43:06.548Z,2109.00
2023-01-10T10:44:06.880Z,2107.00
2023-01-10T10:45:06.897Z,2114.00
2023-01-10T10:46:06.853Z,2121.00
2023-01-10T10:47:06.310Z,2116.00
2023-01-10T10:48:06.299Z,2112.00
2023-01-10T10:49:06.185Z,2108.00
2023-01-10T10:50:06.132Z,2112.00
2023-01-10T10:51:06.094Z,2120.00
2023-01-10T10:52:06.382Z,2127.00
2023-01-10T10:53:05.979Z,2126.00
2023-01-10T10:54:05.930Z,2120.00
2023-01-10T10:55:05.874Z,2118.00
2023-01-10T10:56:05.893Z,2023.00
2023-01-10T10:57:05.754Z,1662.00
2023-01-10T10:58:05.775Z,1322.00
2023-01-10T10:59:05.747Z,1483.00
2023-01-10T11:00:05.635Z,1515.00
2023-01-10T11:01:05.720Z,1531.00
2023-01-10T11:02:06.115Z,1557.00
2023-01-10T11:03:05.551Z,1599.00
2023-01-10T11:04:05.457Z,1655.00
2023-01-10T11:05:05.520Z,1755.00
2023-01-10T11:06:05.482Z,1779.00
2023-01-10T11:07:05.316Z,1787.00
2023-01-10T11:08:05.285Z,1798.00
2023-01-10T11:09:05.258Z,1804.00
2023-01-10T11:10:05.177Z,1811.00
2023-01-10T11:11:05.151Z,1816.00
2023-01-10T11:12:05.357Z,1821.00
2023-01-10T11:13:05.028Z,1827.00
2023-01-10T11:14:04.972Z,1825.00
2023-01-10T11:15:04.957Z,1828.00
2023-01-10T11:16:04.904Z,1943.00
2023-01-10T11:17:04.810Z,1884.00
2023-01-10T11:18:04.760Z,1348.00
2023-01-10T11:19:05.746Z,1173.00
2023-01-10T11:20:04.974Z,1083.00
2023-01-10T11:21:04.627Z,887.00
2023-01-10T11:22:04.597Z,836.00
2023-01-10T11:23:04.544Z,819.00
2023-01-10T11:24:04.497Z,837.00
2023-01-10T11:25:04.466Z,836.00
2023-01-10T11:26:04.886Z,771.00
2023-01-10T11:27:04.408Z,790.00
2023-01-10T11:28:04.362Z,856.00
2023-01-10T11:29:04.357Z,965.00
2023-01-10T11:30:04.286Z,1008.00
2023-01-10T11:31:04.382Z,1020.00
2023-01-10T11:32:04.283Z,1051.00
2023-01-10T11:33:04.168Z,1130.00
2023-01-10T11:34:04.369Z,1168.00
2023-01-10T11:35:04.121Z,1205.00
2023-01-10T11:36:04.044Z,1232.00
2023-01-10T11:37:04.139Z,1255.00
2023-01-10T11:38:03.952Z,1276.00
2023-01-10T11:39:04.378Z,1299.00
2023-01-10T11:40:03.872Z,1316.00
2023-01-10T11:41:03.801Z,1336.00
2023-01-10T11:42:03.751Z,1373.00
2023-01-10T11:43:03.726Z,1409.00
2023-01-10T11:44:03.900Z,1428.00
2023-01-10T11:45:03.616Z,1447.00
2023-01-10T11:46:03.603Z,1478.00
2023-01-10T11:47:03.493Z,1505.00
2023-01-10T11:48:03.438Z,1528.00
2023-01-10T11:49:06.761Z,1550.00
2023-01-10T11:50:03.541Z,1575.00
2023-01-10T11:51:03.312Z,1603.00
2023-01-10T11:52:03.398Z,1620.00
2023-01-10T11:53:04.176Z,1633.00
2023-01-10T11:54:03.208Z,1661.00
2023-01-10T11:55:03.100Z,1684.00
2023-01-10T11:56:03.037Z,1696.00
2023-01-10T11:57:02.961Z,1711.00
2023-01-10T11:58:03.376Z,1730.00
2023-01-10T11:59:02.846Z,1746.00
2023-01-10T12:00:02.809Z,1760.00
2023-01-10T12:01:02.853Z,1785.00
2023-01-10T12:02:02.992Z,1812.00
2023-01-10T12:03:02.615Z,1827.00
2023-01-10T12:04:02.565Z,1840.00
2023-01-10T12:05:02.575Z,1851.00
2023-01-10T12:06:02.443Z,1866.00
2023-01-10T12:07:02.932Z,1882.00
2023-01-10T12:08:02.331Z,1900.00
2023-01-10T12:09:02.408Z,1923.00
2023-01-10T12:10:02.383Z,1942.00
2023-01-10T12:11:02.182Z,1961.00
2023-01-10T12:12:02.447Z,1979.00
2023-01-10T12:13:02.083Z,1992.00
2023-01-10T12:14:02.033Z,2019.00
2023-01-10T12:15:01.979Z,2020.00
2023-01-10T12:16:01.923Z,1960.00
2023-01-10T12:17:01.927Z,1999.00
2023-01-10T12:18:01.891Z,1798.00
2023-01-10T12:19:01.773Z,1452.00
2023-01-10T12:20:01.730Z,1486.00
2023-01-10T12:21:01.666Z,1344.00
2023-01-10T12:22:01.600Z,1236.00
2023-01-10T12:23:01.917Z,1262.00
2023-01-10T12:24:01.519Z,1359.00
2023-01-10T12:25:01.458Z,1373.00
2023-01-10T12:26:11.357Z,1555.00
2023-01-10T12:27:01.414Z,1768.00
2023-01-10T12:28:01.298Z,1739.00
2023-01-10T12:29:01.250Z,1706.00
2023-01-10T12:30:01.196Z,1702.00
2023-01-10T12:31:01.452Z,1711.00
2023-01-10T12:32:01.094Z,1726.00
2023-01-10T12:33:01.481Z,1737.00
2023-01-10T12:34:01.001Z,1755.00
2023-01-10T12:35:00.938Z,1773.00
2023-01-10T12:36:00.887Z,1793.00
2023-01-10T12:37:00.836Z,1812.00
2023-01-10T12:38:00.794Z,1834.00
2023-01-10T12:39:00.916Z,1847.00
2023-01-10T12:40:00.697Z,1867.00
2023-01-10T12:41:00.624Z,1890.00
2023-01-10T12:42:00.570Z,1909.00
2023-01-10T12:43:00.533Z,1943.00
2023-01-10T12:44:00.898Z,1966.00
2023-01-10T12:45:00.409Z,1983.00
2023-01-10T12:46:02.858Z,2002.00
2023-01-10T12:47:07.223Z,2010.00
2023-01-10T12:48:00.431Z,2024.00
2023-01-10T12:49:00.196Z,2056.00
2023-01-10T12:50:00.183Z,2081.00
2023-01-10T12:51:00.104Z,2092.00
2023-01-10T12:52:00.051Z,2085.00
2023-01-10T12:53:00.538Z,2101.00
2023-01-10T12:54:00.072Z,2112.00
2023-01-10T12:54:59.878Z,2124.00
2023-01-10T12:55:59.817Z,2119.00
2023-01-10T12:56:59.746Z,2112.00
2023-01-10T12:57:59.926Z,2099.00
2023-01-10T12:58:59.655Z,2088.00
2023-01-10T12:59:59.578Z,2069.00
2023-01-10T13:00:59.593Z,2053.00
2023-01-10T13:01:59.585Z,2036.00
2023-01-10T13:02:59.546Z,2012.00
2023-01-10T13:03:59.409Z,1993.00
2023-01-10T13:04:59.305Z,1982.00
2023-01-10T13:05:59.260Z,1978.00
2023-01-10T13:06:59.203Z,1972.00
2023-01-10T13:07:59.782Z,1964.00
2023-01-10T13:08:59.105Z,1960.00
2023-01-10T13:09:59.043Z,1958.00
2023-01-10T13:10:59.012Z,1959.00
2023-01-10T13:11:58.940Z,1953.00
2023-01-10T13:12:58.983Z,1944.00
2023-01-10T13:13:58.850Z,1939.00